sensor_id;sensor_type;location;lat;lon;timestamp;pressure;altitude;pressure_sealevel;temperature;humidity
62374;BME280;48409;49.030;1.820;2023-02-16T00:01:48;101808.78;;;5.84;63.66
62374;BME280;48409;49.030;1.820;2023-02-16T00:04:21;101802.69;;;5.80;63.84
62374;BME280;48409;49.030;1.820;2023-02-16T00:06:46;101803.56;;;5.79;63.80
62374;BME280;48409;49.030;1.820;2023-02-16T00:09:12;101794.91;;;5.75;63.65
62374;BME280;48409;49.030;1.820;2023-02-16T00:11:37;101805.34;;;5.75;63.90
62374;BME280;48409;49.030;1.820;2023-02-16T00:14:22;101802.75;;;5.72;63.74
62374;BME280;48409;49.030;1.820;2023-02-16T00:16:54;101802.78;;;5.69;63.84
62374;BME280;48409;49.030;1.820;2023-02-16T00:19:20;101794.97;;;5.66;63.67
62374;BME280;48409;49.030;1.820;2023-02-16T00:21:46;101788.88;;;5.66;63.89
62374;BME280;48409;49.030;1.820;2023-02-16T00:24:12;101788.03;;;5.64;63.88
62374;BME280;48409;49.030;1.820;2023-02-16T00:26:38;101783.66;;;5.61;63.68
62374;BME280;48409;49.030;1.820;2023-02-16T00:29:04;101787.16;;;5.60;63.76
62374;BME280;48409;49.030;1.820;2023-02-16T00:31:29;101780.22;;;5.56;63.71
62374;BME280;48409;49.030;1.820;2023-02-16T00:33:58;101772.38;;;5.54;63.76
62374;BME280;48409;49.030;1.820;2023-02-16T00:36:24;101775.88;;;5.52;64.00
62374;BME280;48409;49.030;1.820;2023-02-16T00:38:49;101776.78;;;5.51;63.63
62374;BME280;48409;49.030;1.820;2023-02-16T00:41:19;101780.28;;;5.49;63.69
62374;BME280;48409;49.030;1.820;2023-02-16T00:46:41;101769.84;;;5.43;63.99
62374;BME280;48409;49.030;1.820;2023-02-16T00:49:12;101775.13;;;5.42;63.95
62374;BME280;48409;49.030;1.820;2023-02-16T00:51:38;101776.84;;;5.41;63.94
62374;BME280;48409;49.030;1.820;2023-02-16T00:54:03;101778.56;;;5.41;63.86
62374;BME280;48409;49.030;1.820;2023-02-16T00:56:28;101774.25;;;5.38;63.99
62374;BME280;48409;49.030;1.820;2023-02-16T00:58:53;101776.84;;;5.38;63.88
62374;BME280;48409;49.030;1.820;2023-02-16T01:01:19;101771.63;;;5.38;63.75
62374;BME280;48409;49.030;1.820;2023-02-16T01:03:47;101760.34;;;5.36;63.87
62374;BME280;48409;49.030;1.820;2023-02-16T01:06:12;101766.41;;;5.38;63.66
62374;BME280;48409;49.030;1.820;2023-02-16T01:09:13;101750.78;;;5.35;63.91
62374;BME280;48409;49.030;1.820;2023-02-16T01:11:58;101759.44;;;5.37;63.83
62374;BME280;48409;49.030;1.820;2023-02-16T01:14:23;101743.78;;;5.35;63.80
62374;BME280;48409;49.030;1.820;2023-02-16T01:16:49;101752.50;;;5.36;63.93
62374;BME280;48409;49.030;1.820;2023-02-16T01:19:14;101762.06;;;5.35;63.58
62374;BME280;48409;49.030;1.820;2023-02-16T01:21:39;101749.88;;;5.36;63.78
62374;BME280;48409;49.030;1.820;2023-02-16T01:24:05;101744.66;;;5.36;63.85
62374;BME280;48409;49.030;1.820;2023-02-16T01:26:31;101746.41;;;5.35;63.73
62374;BME280;48409;49.030;1.820;2023-02-16T01:28:56;101750.78;;;5.35;64.01
62374;BME280;48409;49.030;1.820;2023-02-16T01:31:22;101750.78;;;5.35;63.84
62374;BME280;48409;49.030;1.820;2023-02-16T01:33:47;101754.25;;;5.34;63.76
62374;BME280;48409;49.030;1.820;2023-02-16T01:36:19;101752.50;;;5.36;63.85
62374;BME280;48409;49.030;1.820;2023-02-16T01:38:46;101746.41;;;5.34;63.99
62374;BME280;48409;49.030;1.820;2023-02-16T01:46:38;101743.84;;;5.31;63.73
62374;BME280;48409;49.030;1.820;2023-02-16T01:49:11;101757.75;;;5.31;63.74
62374;BME280;48409;49.030;1.820;2023-02-16T01:51:40;101749.06;;;5.31;63.93
62374;BME280;48409;49.030;1.820;2023-02-16T01:54:17;101748.19;;;5.30;63.77
62374;BME280;48409;49.030;1.820;2023-02-16T01:56:50;101742.06;;;5.30;63.88
62374;BME280;48409;49.030;1.820;2023-02-16T01:59:29;101738.63;;;5.28;63.75
62374;BME280;48409;49.030;1.820;2023-02-16T02:01:58;101735.13;;;5.29;63.90
62374;BME280;48409;49.030;1.820;2023-02-16T02:04:38;101731.66;;;5.27;64.04
62374;BME280;48409;49.030;1.820;2023-02-16T02:07:27;101729.06;;;5.25;63.97
62374;BME280;48409;49.030;1.820;2023-02-16T02:09:57;101726.47;;;5.23;63.96
62374;BME280;48409;49.030;1.820;2023-02-16T02:12:31;101725.63;;;5.21;63.94
62374;BME280;48409;49.030;1.820;2023-02-16T02:14:57;101720.38;;;5.21;63.98
62374;BME280;48409;49.030;1.820;2023-02-16T02:17:22;101716.03;;;5.20;63.90
62374;BME280;48409;49.030;1.820;2023-02-16T02:25:03;101705.63;;;5.17;63.94
62374;BME280;48409;49.030;1.820;2023-02-16T02:27:38;101706.50;;;5.15;63.99
62374;BME280;48409;49.030;1.820;2023-02-16T02:43:30;101684.75;;;5.08;64.17
62374;BME280;48409;49.030;1.820;2023-02-16T02:45:53;101683.03;;;5.07;64.13
62374;BME280;48409;49.030;1.820;2023-02-16T02:48:19;101690.88;;;5.07;64.08
62374;BME280;48409;49.030;1.820;2023-02-16T02:50:52;101696.09;;;5.05;63.81
62374;BME280;48409;49.030;1.820;2023-02-16T02:53:38;101690.03;;;5.05;64.05
62374;BME280;48409;49.030;1.820;2023-02-16T02:56:06;101685.69;;;5.04;64.07
62374;BME280;48409;49.030;1.820;2023-02-16T02:58:52;101685.69;;;5.02;63.77
62374;BME280;48409;49.030;1.820;2023-02-16T03:01:39;101686.53;;;5.03;63.94
62374;BME280;48409;49.030;1.820;2023-02-16T03:04:05;101679.59;;;5.02;63.95
62374;BME280;48409;49.030;1.820;2023-02-16T03:06:33;101675.25;;;5.01;64.01
62374;BME280;48409;49.030;1.820;2023-02-16T03:09:01;101675.25;;;5.01;64.09
62374;BME280;48409;49.030;1.820;2023-02-16T03:11:29;101678.75;;;4.98;64.01
62374;BME280;48409;49.030;1.820;2023-02-16T03:14:31;101677.00;;;4.99;63.75
62374;BME280;48409;49.030;1.820;2023-02-16T03:17:03;101666.59;;;4.97;64.00
62374;BME280;48409;49.030;1.820;2023-02-16T03:19:49;101670.03;;;4.96;63.94
62374;BME280;48409;49.030;1.820;2023-02-16T03:22:34;101676.16;;;4.96;64.07
62374;BME280;48409;49.030;1.820;2023-02-16T03:25:19;101663.97;;;4.95;64.03
62374;BME280;48409;49.030;1.820;2023-02-16T03:28:06;101661.38;;;4.94;64.07
62374;BME280;48409;49.030;1.820;2023-02-16T03:30:52;101677.03;;;4.94;64.08
62374;BME280;48409;49.030;1.820;2023-02-16T03:33:19;101672.66;;;4.94;64.01
62374;BME280;48409;49.030;1.820;2023-02-16T03:35:44;101673.53;;;4.93;64.10
62374;BME280;48409;49.030;1.820;2023-02-16T03:38:10;101675.28;;;4.94;64.01
62374;BME280;48409;49.030;1.820;2023-02-16T03:40:37;101669.19;;;4.95;63.88
62374;BME280;48409;49.030;1.820;2023-02-16T03:43:05;101667.44;;;4.94;64.08
62374;BME280;48409;49.030;1.820;2023-02-16T03:45:31;101662.22;;;4.94;64.14
62374;BME280;48409;49.030;1.820;2023-02-16T03:47:57;101676.16;;;4.96;64.13
62374;BME280;48409;49.030;1.820;2023-02-16T03:50:22;101669.19;;;4.95;64.04
62374;BME280;48409;49.030;1.820;2023-02-16T03:52:47;101670.94;;;4.96;63.98
62374;BME280;48409;49.030;1.820;2023-02-16T03:55:13;101677.88;;;4.97;64.13
62374;BME280;48409;49.030;1.820;2023-02-16T03:57:39;101670.94;;;4.96;64.23
62374;BME280;48409;49.030;1.820;2023-02-16T04:00:04;101667.44;;;4.97;64.05
62374;BME280;48409;49.030;1.820;2023-02-16T04:02:29;101672.63;;;5.01;64.24
62374;BME280;48409;49.030;1.820;2023-02-16T04:04:55;101661.31;;;5.00;63.99
62374;BME280;48409;49.030;1.820;2023-02-16T04:07:20;101672.63;;;5.01;64.24
62374;BME280;48409;49.030;1.820;2023-02-16T04:09:45;101672.63;;;5.02;64.15
62374;BME280;48409;49.030;1.820;2023-02-16T04:12:11;101674.38;;;5.02;64.18
62374;BME280;48409;49.030;1.820;2023-02-16T04:14:55;101671.75;;;5.03;64.33
62374;BME280;48409;49.030;1.820;2023-02-16T04:17:20;101672.63;;;5.04;64.34
62374;BME280;48409;49.030;1.820;2023-02-16T04:19:45;101677.84;;;5.04;64.14
62374;BME280;48409;49.030;1.820;2023-02-16T04:22:11;101676.06;;;5.06;64.10
62374;BME280;48409;49.030;1.820;2023-02-16T04:24:36;101681.31;;;5.06;64.29
62374;BME280;48409;49.030;1.820;2023-02-16T04:27:01;101672.59;;;5.07;64.30
62374;BME280;48409;49.030;1.820;2023-02-16T04:29:26;101682.13;;;5.08;64.38
62374;BME280;48409;49.030;1.820;2023-02-16T04:31:53;101687.34;;;5.09;64.36
62374;BME280;48409;49.030;1.820;2023-02-16T04:34:18;101680.41;;;5.10;64.13
62374;BME280;48409;49.030;1.820;2023-02-16T04:36:43;101674.28;;;5.11;64.38
62374;BME280;48409;49.030;1.820;2023-02-16T04:39:09;101676.03;;;5.12;64.29
62374;BME280;48409;49.030;1.820;2023-02-16T04:41:34;101679.50;;;5.11;64.44
62374;BME280;48409;49.030;1.820;2023-02-16T04:43:59;101684.72;;;5.14;64.31
62374;BME280;48409;49.030;1.820;2023-02-16T04:46:24;101677.78;;;5.13;64.18
62374;BME280;48409;49.030;1.820;2023-02-16T04:48:50;101671.69;;;5.13;64.33
62374;BME280;48409;49.030;1.820;2023-02-16T04:51:15;101679.50;;;5.14;64.38
62374;BME280;48409;49.030;1.820;2023-02-16T04:53:40;101679.50;;;5.14;64.25
62374;BME280;48409;49.030;1.820;2023-02-16T04:56:09;101684.72;;;5.14;64.46
62374;BME280;48409;49.030;1.820;2023-02-16T04:58:35;101679.50;;;5.14;64.34
62374;BME280;48409;49.030;1.820;2023-02-16T05:01:00;101680.38;;;5.15;64.32
62374;BME280;48409;49.030;1.820;2023-02-16T05:03:25;101677.78;;;5.15;64.22
62374;BME280;48409;49.030;1.820;2023-02-16T05:05:50;101679.50;;;5.14;64.23
62374;BME280;48409;49.030;1.820;2023-02-16T05:08:16;101673.41;;;5.14;64.10
62374;BME280;48409;49.030;1.820;2023-02-16T05:10:41;101677.78;;;5.13;64.39
62374;BME280;48409;49.030;1.820;2023-02-16T05:13:08;101667.34;;;5.13;64.23
62374;BME280;48409;49.030;1.820;2023-02-16T05:15:52;101674.28;;;5.14;64.43
62374;BME280;48409;49.030;1.820;2023-02-16T05:18:17;101670.78;;;5.15;64.25
62374;BME280;48409;49.030;1.820;2023-02-16T05:20:42;101670.78;;;5.15;64.32
62374;BME280;48409;49.030;1.820;2023-02-16T05:23:26;101673.41;;;5.15;64.39
62374;BME280;48409;49.030;1.820;2023-02-16T05:25:51;101679.50;;;5.14;64.25
62374;BME280;48409;49.030;1.820;2023-02-16T05:28:17;101673.41;;;5.14;64.42
62374;BME280;48409;49.030;1.820;2023-02-16T05:30:42;101671.66;;;5.14;64.49
62374;BME280;48409;49.030;1.820;2023-02-16T05:33:07;101672.56;;;5.13;64.20
62374;BME280;48409;49.030;1.820;2023-02-16T05:35:33;101675.16;;;5.15;64.40
62374;BME280;48409;49.030;1.820;2023-02-16T05:37:58;101662.09;;;5.13;64.48
62374;BME280;48409;49.030;1.820;2023-02-16T05:40:24;101671.66;;;5.14;64.30
62374;BME280;48409;49.030;1.820;2023-02-16T05:42:53;101676.00;;;5.15;64.33
62374;BME280;48409;49.030;1.820;2023-02-16T05:45:18;101680.34;;;5.16;64.52
62374;BME280;48409;49.030;1.820;2023-02-16T05:47:44;101682.97;;;5.16;64.55
62374;BME280;48409;49.030;1.820;2023-02-16T05:50:09;101682.97;;;5.16;64.54
62374;BME280;48409;49.030;1.820;2023-02-16T05:52:34;101685.56;;;5.18;64.30
62374;BME280;48409;49.030;1.820;2023-02-16T05:55:00;101682.94;;;5.18;64.52
62374;BME280;48409;49.030;1.820;2023-02-16T05:57:25;101690.78;;;5.19;64.56
62374;BME280;48409;49.030;1.820;2023-02-16T05:59:50;101689.03;;;5.20;64.53
62374;BME280;48409;49.030;1.820;2023-02-16T06:02:16;101690.78;;;5.21;64.63
62374;BME280;48409;49.030;1.820;2023-02-16T06:04:41;101694.22;;;5.23;64.51
62374;BME280;48409;49.030;1.820;2023-02-16T06:07:06;101682.03;;;5.23;64.56
62374;BME280;48409;49.030;1.820;2023-02-16T06:09:31;101687.25;;;5.25;64.42
62374;BME280;48409;49.030;1.820;2023-02-16T06:11:57;101691.59;;;5.28;64.50
62374;BME280;48409;49.030;1.820;2023-02-16T06:14:22;101695.94;;;5.29;64.41
62374;BME280;48409;49.030;1.820;2023-02-16T06:16:48;101694.19;;;5.31;64.58
62374;BME280;48409;49.030;1.820;2023-02-16T06:19:14;101696.81;;;5.31;64.61
62374;BME280;48409;49.030;1.820;2023-02-16T06:21:40;101694.19;;;5.32;64.39
62374;BME280;48409;49.030;1.820;2023-02-16T06:24:06;101699.38;;;5.34;64.52
62374;BME280;48409;49.030;1.820;2023-02-16T06:26:32;101695.91;;;5.35;64.56
62374;BME280;48409;49.030;1.820;2023-02-16T06:28:57;101701.97;;;5.37;64.48
62374;BME280;48409;49.030;1.820;2023-02-16T06:31:22;101703.69;;;5.38;64.65
62374;BME280;48409;49.030;1.820;2023-02-16T06:33:49;101695.00;;;5.39;64.61
62374;BME280;48409;49.030;1.820;2023-02-16T06:36:14;101700.19;;;5.42;64.43
62374;BME280;48409;49.030;1.820;2023-02-16T06:38:39;101709.75;;;5.43;64.70
62374;BME280;48409;49.030;1.820;2023-02-16T06:41:05;101712.34;;;5.43;64.69
62374;BME280;48409;49.030;1.820;2023-02-16T06:43:30;101720.19;;;5.45;64.76
62374;BME280;48409;49.030;1.820;2023-02-16T06:45:55;101720.19;;;5.45;64.78
62374;BME280;48409;49.030;1.820;2023-02-16T06:48:20;101722.78;;;5.46;64.67
62374;BME280;48409;49.030;1.820;2023-02-16T06:50:46;101722.78;;;5.48;64.55
62374;BME280;48409;49.030;1.820;2023-02-16T06:53:11;101734.06;;;5.50;64.79
62374;BME280;48409;49.030;1.820;2023-02-16T06:55:36;101741.91;;;5.52;64.77
62374;BME280;48409;49.030;1.820;2023-02-16T06:58:02;101736.69;;;5.52;64.50
62374;BME280;48409;49.030;1.820;2023-02-16T07:00:27;101741.03;;;5.54;64.58
62374;BME280;48409;49.030;1.820;2023-02-16T07:02:53;101738.41;;;5.56;64.52
62374;BME280;48409;49.030;1.820;2023-02-16T07:05:21;101734.06;;;5.55;64.63
62374;BME280;48409;49.030;1.820;2023-02-16T07:07:47;101741.88;;;5.58;64.64
62374;BME280;48409;49.030;1.820;2023-02-16T07:10:12;101738.38;;;5.57;64.67
62374;BME280;48409;49.030;1.820;2023-02-16T07:12:38;101740.09;;;5.60;64.66
62374;BME280;48409;49.030;1.820;2023-02-16T07:15:03;101731.41;;;5.59;64.60
62374;BME280;48409;49.030;1.820;2023-02-16T07:17:29;101736.59;;;5.61;64.58
62374;BME280;48409;49.030;1.820;2023-02-16T07:19:54;101733.13;;;5.62;64.77
62374;BME280;48409;49.030;1.820;2023-02-16T07:22:20;101734.88;;;5.63;64.79
62374;BME280;48409;49.030;1.820;2023-02-16T07:24:45;101731.38;;;5.64;64.62
62374;BME280;48409;49.030;1.820;2023-02-16T07:27:10;101739.19;;;5.66;64.72
62374;BME280;48409;49.030;1.820;2023-02-16T07:29:36;101740.06;;;5.66;64.73
62374;BME280;48409;49.030;1.820;2023-02-16T07:32:01;101738.31;;;5.68;64.66
62374;BME280;48409;49.030;1.820;2023-02-16T07:34:27;101747.00;;;5.70;64.78
62374;BME280;48409;49.030;1.820;2023-02-16T07:36:52;101747.00;;;5.70;64.78
62374;BME280;48409;49.030;1.820;2023-02-16T07:39:17;101746.13;;;5.71;64.64
62374;BME280;48409;49.030;1.820;2023-02-16T07:41:43;101750.47;;;5.72;64.88
62374;BME280;48409;49.030;1.820;2023-02-16T07:44:08;101751.31;;;5.74;64.70
62374;BME280;48409;49.030;1.820;2023-02-16T07:46:34;101768.69;;;5.79;64.71
62374;BME280;48409;49.030;1.820;2023-02-16T07:48:59;101764.34;;;5.81;64.84
62374;BME280;48409;49.030;1.820;2023-02-16T07:51:27;101759.13;;;5.81;65.10
62374;BME280;48409;49.030;1.820;2023-02-16T07:53:52;101759.09;;;5.84;64.87
62374;BME280;48409;49.030;1.820;2023-02-16T07:56:18;101765.16;;;5.87;65.04
62374;BME280;48409;49.030;1.820;2023-02-16T07:58:44;101768.59;;;5.90;65.07
62374;BME280;48409;49.030;1.820;2023-02-16T08:01:11;101769.47;;;5.93;65.07
62374;BME280;48409;49.030;1.820;2023-02-16T08:03:38;101758.09;;;5.96;65.16
62374;BME280;48409;49.030;1.820;2023-02-16T08:06:03;101753.69;;;5.99;65.04
62374;BME280;48409;49.030;1.820;2023-02-16T08:08:29;101752.81;;;6.04;65.28
62374;BME280;48409;49.030;1.820;2023-02-16T08:10:54;101746.69;;;6.06;65.09
62374;BME280;48409;49.030;1.820;2023-02-16T08:13:20;101750.13;;;6.10;65.11
62374;BME280;48409;49.030;1.820;2023-02-16T08:15:45;101752.72;;;6.14;65.44
62374;BME280;48409;49.030;1.820;2023-02-16T08:18:10;101756.16;;;6.18;65.32
62374;BME280;48409;49.030;1.820;2023-02-16T08:20:36;101754.41;;;6.22;65.22
62374;BME280;48409;49.030;1.820;2023-02-16T08:23:01;101748.19;;;6.27;65.49
62374;BME280;48409;49.030;1.820;2023-02-16T08:25:26;101742.94;;;6.31;65.49
62374;BME280;48409;49.030;1.820;2023-02-16T08:27:52;101744.66;;;6.35;65.48
62374;BME280;48409;49.030;1.820;2023-02-16T08:30:17;101739.38;;;6.38;65.47
62374;BME280;48409;49.030;1.820;2023-02-16T08:32:44;101748.03;;;6.43;65.39
62374;BME280;48409;49.030;1.820;2023-02-16T08:35:10;101747.13;;;6.49;65.60
62374;BME280;48409;49.030;1.820;2023-02-16T08:37:38;101744.41;;;6.53;65.67
62374;BME280;48409;49.030;1.820;2023-02-16T08:40:04;101726.97;;;6.56;65.78
62374;BME280;48409;49.030;1.820;2023-02-16T08:42:30;101734.75;;;6.60;65.59
62374;BME280;48409;49.030;1.820;2023-02-16T08:44:56;101737.31;;;6.65;65.82
62374;BME280;48409;49.030;1.820;2023-02-16T08:47:22;101753.81;;;6.70;65.75
62374;BME280;48409;49.030;1.820;2023-02-16T08:49:48;101758.13;;;6.74;65.77
62374;BME280;48409;49.030;1.820;2023-02-16T08:52:14;101779.06;;;6.77;65.77
62374;BME280;48409;49.030;1.820;2023-02-16T08:54:39;101787.72;;;6.83;65.64
62374;BME280;48409;49.030;1.820;2023-02-16T08:57:04;101799.88;;;6.87;65.89
62374;BME280;48409;49.030;1.820;2023-02-16T08:59:30;101799.88;;;6.90;65.96
62374;BME280;48409;49.030;1.820;2023-02-16T09:01:56;101798.03;;;6.95;65.95
62374;BME280;48409;49.030;1.820;2023-02-16T09:04:23;101802.31;;;7.01;65.91
62374;BME280;48409;49.030;1.820;2023-02-16T09:06:49;101787.44;;;7.04;65.98
62374;BME280;48409;49.030;1.820;2023-02-16T09:09:20;101794.38;;;7.09;65.88
62374;BME280;48409;49.030;1.820;2023-02-16T09:11:50;101800.38;;;7.15;66.06
62374;BME280;48409;49.030;1.820;2023-02-16T09:14:18;101808.16;;;7.20;66.04
62374;BME280;48409;49.030;1.820;2023-02-16T09:16:45;101798.53;;;7.24;65.96
62374;BME280;48409;49.030;1.820;2023-02-16T09:19:15;101799.34;;;7.27;66.10
62374;BME280;48409;49.030;1.820;2023-02-16T09:21:41;101797.50;;;7.32;66.17
62374;BME280;48409;49.030;1.820;2023-02-16T09:24:07;101793.06;;;7.38;66.13
62374;BME280;48409;49.030;1.820;2023-02-16T09:26:33;101792.13;;;7.42;66.28
62374;BME280;48409;49.030;1.820;2023-02-16T09:28:59;101790.31;;;7.47;66.20
62374;BME280;48409;49.030;1.820;2023-02-16T09:31:25;101788.50;;;7.52;66.29
62374;BME280;48409;49.030;1.820;2023-02-16T09:33:53;101790.19;;;7.56;66.33
62374;BME280;48409;49.030;1.820;2023-02-16T09:36:20;101776.97;;;7.61;66.49
62374;BME280;48409;49.030;1.820;2023-02-16T09:38:45;101778.66;;;7.67;66.40
62374;BME280;48409;49.030;1.820;2023-02-16T09:46:23;101780.06;;;7.87;66.59
62374;BME280;48409;49.030;1.820;2023-02-16T09:48:50;101782.59;;;7.93;66.79
62374;BME280;48409;49.030;1.820;2023-02-16T09:51:38;101783.34;;;8.00;66.60
62374;BME280;48409;49.030;1.820;2023-02-16T09:56:51;101782.22;;;8.15;66.85
62374;BME280;48409;49.030;1.820;2023-02-16T09:59:33;101781.19;;;8.20;66.64
62374;BME280;48409;49.030;1.820;2023-02-16T10:02:37;101784.56;;;8.27;66.78
62374;BME280;48409;49.030;1.820;2023-02-16T10:07:49;101792.19;;;8.43;66.86
62374;BME280;48409;49.030;1.820;2023-02-16T10:10:23;101791.19;;;8.48;66.96
62374;BME280;48409;49.030;1.820;2023-02-16T10:12:51;101809.47;;;8.55;66.90
62374;BME280;48409;49.030;1.820;2023-02-16T10:15:20;101807.59;;;8.61;67.01
62374;BME280;48409;49.030;1.820;2023-02-16T10:17:51;101821.50;;;8.67;66.98
62374;BME280;48409;49.030;1.820;2023-02-16T10:20:22;101819.59;;;8.75;67.11
62374;BME280;48409;49.030;1.820;2023-02-16T10:25:39;101814.97;;;8.88;67.21
62374;BME280;48409;49.030;1.820;2023-02-16T10:28:17;101810.44;;;8.95;67.22
62374;BME280;48409;49.030;1.820;2023-02-16T10:31:02;101806.75;;;9.02;67.26
62374;BME280;48409;49.030;1.820;2023-02-16T10:35:57;101819.56;;;9.19;67.48
62374;BME280;48409;49.030;1.820;2023-02-16T10:40:51;101814.75;;;9.38;67.65
62374;BME280;48409;49.030;1.820;2023-02-16T10:43:24;101814.53;;;9.48;67.71
62374;BME280;48409;49.030;1.820;2023-02-16T10:45:56;101816.03;;;9.58;68.00
62374;BME280;48409;49.030;1.820;2023-02-16T10:48:23;101817.63;;;9.65;67.80
62374;BME280;48409;49.030;1.820;2023-02-16T10:51:04;101812.13;;;9.75;67.91
62374;BME280;48409;49.030;1.820;2023-02-16T10:55:56;101822.25;;;9.90;67.80
62374;BME280;48409;49.030;1.820;2023-02-16T10:58:23;101816.88;;;9.97;67.94
62374;BME280;48409;49.030;1.820;2023-02-16T11:03:15;101814.75;;;10.10;67.80
62374;BME280;48409;49.030;1.820;2023-02-16T11:05:43;101806.69;;;10.16;67.83
62374;BME280;48409;49.030;1.820;2023-02-16T11:08:08;101812.69;;;10.23;67.99
62374;BME280;48409;49.030;1.820;2023-02-16T11:10:42;101801.09;;;10.28;67.93
62374;BME280;48409;49.030;1.820;2023-02-16T11:13:16;101807.91;;;10.37;67.99
62374;BME280;48409;49.030;1.820;2023-02-16T11:15:44;101797.19;;;10.45;68.07
62374;BME280;48409;49.030;1.820;2023-02-16T11:18:23;101796.94;;;10.53;68.08
62374;BME280;48409;49.030;1.820;2023-02-16T11:20:51;101797.59;;;10.61;67.97
62374;BME280;48409;49.030;1.820;2023-02-16T11:25:57;101795.44;;;10.76;68.09
62374;BME280;48409;49.030;1.820;2023-02-16T11:28:30;101795.25;;;10.82;67.84
62374;BME280;48409;49.030;1.820;2023-02-16T11:31:10;101796.00;;;10.87;67.92
62374;BME280;48409;49.030;1.820;2023-02-16T11:33:36;101785.25;;;10.93;67.96
62374;BME280;48409;49.030;1.820;2023-02-16T11:36:03;101782.44;;;11.00;68.03
62374;BME280;48409;49.030;1.820;2023-02-16T11:38:41;101778.81;;;11.04;68.02
62374;BME280;48409;49.030;1.820;2023-02-16T11:41:07;101775.06;;;11.11;67.93
62374;BME280;48409;49.030;1.820;2023-02-16T11:43:36;101777.56;;;11.16;68.00
62374;BME280;48409;49.030;1.820;2023-02-16T11:46:11;101761.53;;;11.22;67.96
62374;BME280;48409;49.030;1.820;2023-02-16T11:48:38;101769.31;;;11.27;68.00
62374;BME280;48409;49.030;1.820;2023-02-16T11:51:04;101768.31;;;11.31;67.93
62374;BME280;48409;49.030;1.820;2023-02-16T11:53:37;101760.19;;;11.37;67.83
62374;BME280;48409;49.030;1.820;2023-02-16T11:58:34;101747.69;;;11.42;67.72
62374;BME280;48409;49.030;1.820;2023-02-16T12:01:06;101739.72;;;11.44;67.80
62374;BME280;48409;49.030;1.820;2023-02-16T12:06:21;101736.91;;;11.50;67.59
62374;BME280;48409;49.030;1.820;2023-02-16T12:13:54;101729.66;;;11.57;67.43
62374;BME280;48409;49.030;1.820;2023-02-16T12:19:03;101726.88;;;11.60;67.43
62374;BME280;48409;49.030;1.820;2023-02-16T12:21:42;101737.44;;;11.60;67.56
62374;BME280;48409;49.030;1.820;2023-02-16T12:24:16;101733.00;;;11.62;67.43
62374;BME280;48409;49.030;1.820;2023-02-16T12:26:51;101738.22;;;11.64;67.46
62374;BME280;48409;49.030;1.820;2023-02-16T12:29:22;101739.94;;;11.65;67.45
62374;BME280;48409;49.030;1.820;2023-02-16T12:31:54;101750.41;;;11.68;67.35
62374;BME280;48409;49.030;1.820;2023-02-16T12:37:13;101757.34;;;11.70;67.19
62374;BME280;48409;49.030;1.820;2023-02-16T12:42:23;101744.09;;;11.72;67.28
62374;BME280;48409;49.030;1.820;2023-02-16T12:44:56;101739.66;;;11.72;67.20
62374;BME280;48409;49.030;1.820;2023-02-16T12:47:47;101726.47;;;11.72;67.11
62374;BME280;48409;49.030;1.820;2023-02-16T12:50:20;101731.75;;;11.72;67.11
62374;BME280;48409;49.030;1.820;2023-02-16T12:52:48;101729.13;;;11.72;67.07
62374;BME280;48409;49.030;1.820;2023-02-16T12:58:42;101714.09;;;11.74;67.04
62374;BME280;48409;49.030;1.820;2023-02-16T13:00:48;101713.19;;;11.75;67.05
62374;BME280;48409;49.030;1.820;2023-02-16T13:03:31;101710.50;;;11.77;66.97
62374;BME280;48409;49.030;1.820;2023-02-16T13:08:38;101705.97;;;11.81;66.92
62374;BME280;48409;49.030;1.820;2023-02-16T13:13:34;101690.81;;;11.86;66.79
62374;BME280;48409;49.030;1.820;2023-02-16T13:16:03;101691.63;;;11.88;66.86
62374;BME280;48409;49.030;1.820;2023-02-16T13:18:31;101700.34;;;11.90;66.87
62374;BME280;48409;49.030;1.820;2023-02-16T13:20:58;101693.25;;;11.92;66.74
62374;BME280;48409;49.030;1.820;2023-02-16T13:44:29;101660.91;;;12.11;66.62
62374;BME280;48409;49.030;1.820;2023-02-16T13:46:55;101657.31;;;12.13;66.58
62374;BME280;48409;49.030;1.820;2023-02-16T13:49:31;101657.25;;;12.15;66.74
62374;BME280;48409;49.030;1.820;2023-02-16T13:51:57;101660.69;;;12.17;66.52
62374;BME280;48409;49.030;1.820;2023-02-16T13:54:26;101660.56;;;12.20;66.67
62374;BME280;48409;49.030;1.820;2023-02-16T13:56:52;101664.03;;;12.22;66.57
62374;BME280;48409;49.030;1.820;2023-02-16T14:01:47;101649.75;;;12.26;66.57
62374;BME280;48409;49.030;1.820;2023-02-16T14:06:47;101654.84;;;12.33;66.68
62374;BME280;48409;49.030;1.820;2023-02-16T14:14:41;101651.72;;;12.45;66.73
62374;BME280;48409;49.030;1.820;2023-02-16T14:22:15;101656.44;;;12.59;66.70
62374;BME280;48409;49.030;1.820;2023-02-16T14:24:42;101655.47;;;12.62;66.63
62374;BME280;48409;49.030;1.820;2023-02-16T14:27:11;101668.50;;;12.66;66.75
62374;BME280;48409;49.030;1.820;2023-02-16T14:29:37;101660.41;;;12.71;66.67
62374;BME280;48409;49.030;1.820;2023-02-16T14:32:20;101655.84;;;12.75;66.79
62374;BME280;48409;49.030;1.820;2023-02-16T14:34:55;101663.59;;;12.79;66.63
62374;BME280;48409;49.030;1.820;2023-02-16T14:37:29;101662.53;;;12.84;66.76
62374;BME280;48409;49.030;1.820;2023-02-16T14:40:02;101662.44;;;12.87;66.66
62374;BME280;48409;49.030;1.820;2023-02-16T14:42:32;101658.75;;;12.91;66.78
62374;BME280;48409;49.030;1.820;2023-02-16T14:47:36;101641.72;;;12.98;66.70
62374;BME280;48409;49.030;1.820;2023-02-16T14:50:22;101644.28;;;13.00;66.75
62374;BME280;48409;49.030;1.820;2023-02-16T15:00:32;101643.03;;;13.09;66.50
62374;BME280;48409;49.030;1.820;2023-02-16T15:03:02;101641.19;;;13.11;66.55
62374;BME280;48409;49.030;1.820;2023-02-16T15:05:29;101644.63;;;13.13;66.53
62374;BME280;48409;49.030;1.820;2023-02-16T15:11:24;101648.06;;;13.15;66.48
62374;BME280;48409;49.030;1.820;2023-02-16T15:13:47;101645.41;;;13.15;66.48
62374;BME280;48409;49.030;1.820;2023-02-16T15:16:17;101659.47;;;13.17;66.39